Time;durP1;ratioP1;P1;durP2;ratioP2;P2;SDS_P1;SDS_P2;PMS_P1;PMS_P2;Temp;Humidity;BMP_temperature;BMP_pressure;BME280_temperature;BME280_humidity;BME280_pressure;Samples;Min_cycle;Max_cycle;Signal;HPM_P1;HPM_P2
2023/08/03 00:00:50;;;;;;;14.63;7.18;;;23.60;99.90;;;;;;5070045;28;20048;-65
2023/08/03 00:03:57;;;;;;;12.73;6.78;;;23.60;99.90;;;;;;5069899;28;20482;-65
2023/08/03 00:07:01;;;;;;;17.95;6.60;;;23.60;99.90;;;;;;5070137;28;20884;-65
2023/08/03 00:10:05;;;;;;;23.20;7.90;;;23.50;99.90;;;;;;5069773;28;20048;-64
2023/08/03 00:13:09;;;;;;;17.75;6.75;;;23.50;99.90;;;;;;5069517;28;20807;-65
2023/08/03 00:16:14;;;;;;;14.48;7.13;;;23.50;99.90;;;;;;5069499;28;20051;-64
2023/08/03 00:19:19;;;;;;;17.00;7.28;;;23.50;99.90;;;;;;5069873;28;20048;-64
2023/08/03 00:22:23;;;;;;;16.98;7.45;;;23.50;99.90;;;;;;5069382;28;20059;-65
2023/08/03 00:25:30;;;;;;;15.43;7.45;;;23.40;99.90;;;;;;5069997;28;20060;-65
2023/08/03 00:28:33;;;;;;;17.92;7.90;;;23.40;99.90;;;;;;5070106;28;20284;-65
2023/08/03 00:31:37;;;;;;;13.45;7.32;;;23.40;99.90;;;;;;5067094;28;20043;-65
2023/08/03 00:34:42;;;;;;;14.82;8.13;;;23.40;99.90;;;;;;5073374;28;20036;-65
2023/08/03 00:37:46;;;;;;;17.15;8.32;;;23.30;99.90;;;;;;5073729;28;20047;-65
2023/08/03 00:40:52;;;;;;;22.42;8.10;;;23.30;99.90;;;;;;5060898;28;20048;-65
2023/08/03 00:43:56;;;;;;;11.40;8.05;;;23.30;99.90;;;;;;5073689;28;20059;-64
2023/08/03 00:47:00;;;;;;;18.58;9.68;;;23.20;99.90;;;;;;5073611;28;20044;-65
2023/08/03 00:50:04;;;;;;;16.58;9.43;;;23.20;99.90;;;;;;5073255;28;20047;-65
2023/08/03 00:53:09;;;;;;;14.00;8.73;;;23.20;99.90;;;;;;5073129;28;20426;-65
2023/08/03 00:56:13;;;;;;;15.23;8.27;;;23.20;99.90;;;;;;5073137;28;20056;-65
2023/08/03 00:59:18;;;;;;;13.65;7.53;;;23.20;99.90;;;;;;5073482;28;20055;-65
2023/08/03 01:02:22;;;;;;;13.07;6.70;;;23.20;99.90;;;;;;5072974;28;20050;-64
2023/08/03 01:05:27;;;;;;;17.58;7.25;;;23.20;99.90;;;;;;5073333;28;20055;-65
2023/08/03 01:08:31;;;;;;;12.27;7.07;;;23.30;99.90;;;;;;5073230;28;20051;-65
2023/08/03 01:11:36;;;;;;;18.58;6.55;;;23.40;99.90;;;;;;5071441;28;20040;-65
2023/08/03 01:14:42;;;;;;;13.63;6.07;;;23.40;99.90;;;;;;5072933;28;20047;-65
2023/08/03 01:17:46;;;;;;;11.35;5.65;;;23.50;99.90;;;;;;5072880;28;20415;-65
2023/08/03 01:20:50;;;;;;;12.13;5.38;;;23.60;99.90;;;;;;5071632;28;20064;-64
2023/08/03 01:23:54;;;;;;;8.85;5.45;;;23.60;99.90;;;;;;5072718;28;20039;-66
2023/08/03 01:27:03;;;;;;;10.38;6.43;;;23.70;99.90;;;;;;5072707;28;20048;-65
2023/08/03 01:30:08;;;;;;;8.82;5.68;;;23.70;99.90;;;;;;5060268;28;20047;-65
2023/08/03 01:33:13;;;;;;;16.38;9.25;;;23.80;99.90;;;;;;5059899;28;20043;-65
2023/08/03 01:36:16;;;;;;;18.02;9.18;;;23.80;99.90;;;;;;5072263;28;20506;-64
2023/08/03 01:39:24;;;;;;;14.82;10.20;;;23.90;99.90;;;;;;5072426;28;20043;-66
2023/08/03 01:42:28;;;;;;;13.45;7.20;;;24.00;99.90;;;;;;5071787;28;20059;-65
2023/08/03 01:45:32;;;;;;;12.43;6.05;;;24.00;99.90;;;;;;5072346;28;20055;-65
2023/08/03 01:48:37;;;;;;;12.27;6.32;;;23.90;99.90;;;;;;5071420;28;20051;-66
2023/08/03 01:51:43;;;;;;;13.35;6.30;;;23.90;99.90;;;;;;5071922;28;20056;-66
2023/08/03 01:54:47;;;;;;;8.70;5.75;;;24.00;99.90;;;;;;5072443;28;20043;-66
2023/08/03 01:57:51;;;;;;;12.45;6.55;;;24.00;99.90;;;;;;5071612;28;20040;-65
2023/08/03 02:00:55;;;;;;;11.82;6.70;;;23.90;99.90;;;;;;5071181;28;20063;-65
2023/08/03 02:04:00;;;;;;;14.45;7.05;;;23.90;99.90;;;;;;5072384;28;20040;-65
2023/08/03 02:07:16;;;;;;;12.13;7.50;;;23.60;99.90;;;;;;5059744;28;20123;-65
2023/08/03 02:10:24;;;;;;;9.95;7.47;;;23.30;99.90;;;;;;5072307;28;20403;-65
2023/08/03 02:13:29;;;;;;;11.63;7.65;;;23.10;99.90;;;;;;5071718;28;20047;-65
2023/08/03 02:16:33;;;;;;;25.83;7.78;;;23.10;99.90;;;;;;5071857;28;20039;-65
2023/08/03 02:19:39;;;;;;;16.40;7.68;;;22.90;99.90;;;;;;5071217;28;20051;-65
2023/08/03 02:22:43;;;;;;;16.60;8.13;;;22.70;99.90;;;;;;5058888;28;20419;-65
2023/08/03 02:25:47;;;;;;;14.93;7.60;;;22.50;99.90;;;;;;5059340;28;20497;-65
2023/08/03 02:28:52;;;;;;;14.68;7.28;;;22.60;99.90;;;;;;5071729;28;20620;-65
2023/08/03 02:31:57;;;;;;;15.02;7.47;;;22.50;99.90;;;;;;5058868;28;20067;-65
2023/08/03 02:35:01;;;;;;;34.17;8.45;;;22.40;99.90;;;;;;5071484;28;20051;-65
2023/08/03 02:38:06;;;;;;;14.73;7.32;;;22.40;99.90;;;;;;5070723;28;20044;-65
2023/08/03 02:41:10;;;;;;;15.68;7.50;;;22.40;99.90;;;;;;5058810;28;20051;-65
2023/08/03 02:44:14;;;;;;;15.38;7.72;;;22.40;99.90;;;;;;5071465;28;20039;-64
2023/08/03 02:47:23;;;;;;;15.30;8.15;;;22.30;99.90;;;;;;5069983;28;20044;-65
2023/08/03 02:50:30;;;;;;;17.05;7.82;;;22.50;99.90;;;;;;5058771;28;20059;-65
2023/08/03 02:53:38;;;;;;;10.70;6.45;;;22.50;99.90;;;;;;5058643;28;20052;-65
2023/08/03 02:56:44;;;;;;;18.38;8.80;;;22.50;99.90;;;;;;5058569;28;20051;-66
2023/08/03 02:59:48;;;;;;;19.92;7.20;;;22.60;99.90;;;;;;5058790;28;20055;-65
2023/08/03 03:02:56;;;;;;;20.15;7.75;;;22.70;99.90;;;;;;5058058;28;20044;-65
2023/08/03 03:06:06;;;;;;;16.95;8.00;;;22.70;99.90;;;;;;5070019;28;20779;-65
2023/08/03 03:09:13;;;;;;;12.98;6.95;;;22.70;99.90;;;;;;5058631;28;20055;-65
2023/08/03 03:12:20;;;;;;;14.60;7.18;;;22.70;99.90;;;;;;5057767;28;20048;-65
2023/08/03 03:15:27;;;;;;;18.55;7.03;;;22.70;99.90;;;;;;5058415;28;20047;-65
2023/08/03 03:18:31;;;;;;;13.35;8.30;;;22.70;99.90;;;;;;5071017;28;20043;-65
2023/08/03 03:21:35;;;;;;;20.38;7.38;;;22.70;99.90;;;;;;5070112;28;20056;-65
2023/08/03 03:24:39;;;;;;;20.90;8.13;;;22.60;99.90;;;;;;5070831;28;20051;-65
2023/08/03 03:27:43;;;;;;;16.08;7.93;;;22.60;99.90;;;;;;5070731;28;20048;-65
2023/08/03 03:30:49;;;;;;;16.17;7.22;;;22.60;99.90;;;;;;5058565;28;20396;-65
2023/08/03 03:33:54;;;;;;;15.90;8.68;;;22.60;99.90;;;;;;5070303;28;20047;-66
2023/08/03 03:36:58;;;;;;;12.88;7.13;;;22.50;99.90;;;;;;5069228;28;20055;-65
2023/08/03 03:40:03;;;;;;;13.55;6.97;;;22.50;99.90;;;;;;5070160;28;20064;-65
2023/08/03 03:43:14;;;;;;;15.77;7.57;;;22.40;99.90;;;;;;5069003;28;20078;-64
2023/08/03 03:46:20;;;;;;;19.23;8.23;;;22.30;99.90;;;;;;5069157;28;20502;-65
2023/08/03 03:49:23;;;;;;;14.55;7.93;;;22.30;99.90;;;;;;5070423;28;20582;-65
2023/08/03 03:52:27;;;;;;;14.88;7.85;;;22.20;99.90;;;;;;5069628;28;20055;-65
2023/08/03 03:55:32;;;;;;;12.30;7.25;;;22.20;99.90;;;;;;5070185;28;20047;-64
2023/08/03 03:58:36;;;;;;;18.92;8.82;;;22.10;99.90;;;;;;5057826;28;20059;-65
2023/08/03 04:01:40;;;;;;;11.82;7.40;;;22.10;99.90;;;;;;5069727;28;20051;-66
2023/08/03 04:04:45;;;;;;;16.45;7.95;;;22.10;99.90;;;;;;5069147;28;20486;-65
2023/08/03 04:07:50;;;;;;;13.75;7.07;;;22.10;99.90;;;;;;5070184;28;20342;-65
2023/08/03 04:10:54;;;;;;;12.70;6.45;;;22.10;99.90;;;;;;5069910;28;20055;-65
2023/08/03 04:13:58;;;;;;;16.83;8.10;;;22.10;99.90;;;;;;5069832;28;20043;-65
2023/08/03 04:17:02;;;;;;;14.52;7.18;;;22.10;99.90;;;;;;5069701;28;20075;-65
2023/08/03 04:20:09;;;;;;;23.27;8.32;;;22.10;99.90;;;;;;5069279;28;20043;-65
2023/08/03 04:23:14;;;;;;;21.27;7.53;;;22.10;99.90;;;;;;5068898;28;20047;-65
2023/08/03 04:26:19;;;;;;;12.57;6.93;;;22.10;99.90;;;;;;5070063;28;20419;-66
2023/08/03 04:29:23;;;;;;;19.58;6.15;;;22.00;99.90;;;;;;5057885;28;20047;-65
2023/08/03 04:32:29;;;;;;;13.95;6.70;;;22.00;99.90;;;;;;5068181;28;20056;-65
2023/08/03 04:35:34;;;;;;;12.40;6.82;;;22.10;99.90;;;;;;5069107;28;20040;-65
2023/08/03 04:38:46;;;;;;;17.05;7.40;;;22.10;99.90;;;;;;5057925;28;20055;-66
2023/08/03 04:41:49;;;;;;;14.48;7.43;;;22.00;99.90;;;;;;5069383;28;20043;-66
2023/08/03 04:44:56;;;;;;;12.50;7.38;;;21.80;99.90;;;;;;5058126;28;20036;-65
2023/08/03 04:48:03;;;;;;;15.02;7.57;;;21.90;99.90;;;;;;5068506;28;20036;-65
2023/08/03 04:51:09;;;;;;;16.90;7.65;;;22.00;99.90;;;;;;5069084;28;20375;-65
2023/08/03 04:54:14;;;;;;;16.73;8.07;;;22.20;99.90;;;;;;5065367;28;20040;-65
2023/08/03 04:57:19;;;;;;;16.75;7.40;;;22.20;99.90;;;;;;5068856;28;20045;-65
2023/08/03 05:00:24;;;;;;;18.27;6.75;;;22.30;99.90;;;;;;5052445;28;20379;-64
2023/08/03 05:03:29;;;;;;;15.38;7.13;;;22.30;99.90;;;;;;5045418;28;20518;-66
2023/08/03 05:06:33;;;;;;;17.65;7.25;;;22.40;99.90;;;;;;5047139;28;20047;-65
2023/08/03 05:09:39;;;;;;;15.32;6.97;;;22.50;99.90;;;;;;5070300;28;20379;-65
2023/08/03 05:12:43;;;;;;;12.82;6.93;;;22.60;99.90;;;;;;5065156;28;20052;-65
2023/08/03 05:15:47;;;;;;;11.80;6.60;;;22.80;99.90;;;;;;5059434;28;20102;-65
2023/08/03 05:18:54;;;;;;;12.75;6.65;;;22.80;99.90;;;;;;5053501;28;20063;-66
2023/08/03 05:21:58;;;;;;;16.60;6.78;;;22.80;99.90;;;;;;5053442;28;20387;-65
2023/08/03 05:25:04;;;;;;;15.85;7.07;;;22.90;99.90;;;;;;5054002;28;20051;-66
2023/08/03 05:28:09;;;;;;;11.70;6.95;;;22.90;99.90;;;;;;5054195;28;20415;-66
2023/08/03 05:31:13;;;;;;;12.43;6.72;;;22.90;99.90;;;;;;5053851;28;20044;-66
2023/08/03 05:34:18;;;;;;;31.90;7.95;;;22.80;99.90;;;;;;5053350;28;20059;-66
2023/08/03 05:37:23;;;;;;;14.57;6.35;;;22.90;99.90;;;;;;5053727;28;20052;-66
2023/08/03 05:40:27;;;;;;;13.75;6.30;;;23.10;99.90;;;;;;5053394;28;20044;-66
2023/08/03 05:43:32;;;;;;;11.68;6.07;;;23.40;99.90;;;;;;5052672;28;20047;-64
2023/08/03 05:46:36;;;;;;;21.85;6.05;;;23.50;99.90;;;;;;5059211;28;20048;-65
2023/08/03 05:49:42;;;;;;;12.70;5.90;;;23.60;99.90;;;;;;5075926;28;20071;-65
2023/08/03 05:52:45;;;;;;;13.55;5.57;;;23.60;99.90;;;;;;5051938;28;20814;-65
2023/08/03 05:55:52;;;;;;;11.88;5.85;;;23.80;99.90;;;;;;5068229;28;20079;-66
2023/08/03 05:58:56;;;;;;;11.13;5.60;;;24.10;99.90;;;;;;5068859;28;20036;-66
2023/08/03 06:02:01;;;;;;;13.32;5.63;;;24.30;99.90;;;;;;5068900;28;20043;-65
2023/08/03 06:05:07;;;;;;;11.90;5.20;;;24.30;99.90;;;;;;5072121;28;20044;-65
2023/08/03 06:08:19;;;;;;;14.15;4.93;;;24.80;99.90;;;;;;5056590;28;20043;-65
2023/08/03 06:11:25;;;;;;;10.55;4.35;;;26.00;99.90;;;;;;5069672;28;20487;-65
2023/08/03 06:14:29;;;;;;;12.15;4.80;;;26.10;99.90;;;;;;5071838;28;20043;-66
2023/08/03 06:17:33;;;;;;;13.95;4.82;;;26.10;99.90;;;;;;5072105;28;20048;-66
2023/08/03 06:20:43;;;;;;;14.20;4.40;;;26.00;99.90;;;;;;5071793;28;20060;-65
2023/08/03 06:23:49;;;;;;;9.05;4.18;;;26.00;99.90;;;;;;5059689;28;20051;-66
2023/08/03 06:26:53;;;;;;;13.48;4.85;;;25.90;99.90;;;;;;5062798;28;20391;-65
2023/08/03 06:29:58;;;;;;;13.52;4.30;;;25.80;99.90;;;;;;5070196;28;20044;-65
2023/08/03 06:33:02;;;;;;;9.55;4.25;;;25.70;99.90;;;;;;5068279;28;20036;-65
2023/08/03 06:36:10;;;;;;;9.07;5.05;;;25.50;99.90;;;;;;5077035;28;20055;-66
2023/08/03 06:39:15;;;;;;;10.70;4.75;;;25.40;99.90;;;;;;5061123;28;20380;-65
2023/08/03 06:42:19;;;;;;;14.57;4.90;;;25.40;99.90;;;;;;5061733;28;20515;-65
2023/08/03 06:45:23;;;;;;;12.07;6.03;;;25.30;99.90;;;;;;5067522;28;20083;-65
2023/08/03 06:48:28;;;;;;;8.35;5.00;;;25.20;99.90;;;;;;5063099;28;20030;-65
2023/08/03 06:51:32;;;;;;;9.95;4.35;;;25.10;99.90;;;;;;5066526;28;20383;-65
2023/08/03 06:54:36;;;;;;;9.73;4.68;;;25.30;99.90;;;;;;5060619;28;20051;-64
2023/08/03 06:57:41;;;;;;;15.68;4.70;;;25.40;99.90;;;;;;5070954;28;20039;-65
2023/08/03 07:00:46;;;;;;;9.00;4.50;;;25.70;99.90;;;;;;5066243;28;20043;-65
2023/08/03 07:03:50;;;;;;;14.68;4.78;;;25.70;99.90;;;;;;5054975;28;20047;-66
2023/08/03 07:06:55;;;;;;;13.95;4.45;;;25.90;99.90;;;;;;5055176;28;20044;-66
2023/08/03 07:10:01;;;;;;;14.93;4.75;;;26.00;99.90;;;;;;5068919;28;20059;-64
2023/08/03 07:13:06;;;;;;;9.95;4.32;;;26.00;99.90;;;;;;5069149;28;20052;-65
2023/08/03 07:16:11;;;;;;;12.57;4.55;;;26.10;99.90;;;;;;5065322;28;20043;-66
2023/08/03 07:19:16;;;;;;;11.18;4.47;;;26.20;99.90;;;;;;5071238;28;20039;-65
2023/08/03 07:22:21;;;;;;;9.98;3.92;;;26.20;99.90;;;;;;5083458;28;20051;-66
2023/08/03 07:25:25;;;;;;;14.40;4.85;;;25.80;99.90;;;;;;5072602;28;20477;-65
2023/08/03 07:28:30;;;;;;;10.73;4.95;;;25.70;99.90;;;;;;5064203;28;20035;-65
2023/08/03 07:31:34;;;;;;;13.25;4.68;;;25.60;99.90;;;;;;5066424;28;20047;-65
2023/08/03 07:34:38;;;;;;;9.18;4.13;;;25.70;99.90;;;;;;5064962;28;20530;-66
2023/08/03 07:37:42;;;;;;;12.13;4.22;;;25.80;99.90;;;;;;5062556;28;20565;-66
2023/08/03 07:40:48;;;;;;;14.80;5.35;;;25.70;99.90;;;;;;5067503;28;20036;-66
2023/08/03 07:43:52;;;;;;;15.05;4.20;;;25.50;99.90;;;;;;5065667;28;20051;-65
2023/08/03 07:46:56;;;;;;;9.75;4.43;;;25.60;99.90;;;;;;5057320;28;20040;-66
2023/08/03 07:50:03;;;;;;;14.88;4.90;;;25.70;99.90;;;;;;5060437;28;20044;-65
2023/08/03 07:53:09;;;;;;;9.95;3.95;;;25.70;99.90;;;;;;5064567;28;20043;-66
2023/08/03 07:56:15;;;;;;;8.65;4.13;;;25.90;99.90;;;;;;5060401;28;20510;-65
2023/08/03 07:59:19;;;;;;;10.27;4.30;;;26.30;99.90;;;;;;5061765;28;20035;-65
2023/08/03 08:02:23;;;;;;;10.02;4.82;;;26.80;99.90;;;;;;5060822;28;20039;-65
2023/08/03 08:05:27;;;;;;;11.57;4.72;;;26.80;99.90;;;;;;5062612;28;20036;-66
2023/08/03 08:08:32;;;;;;;8.82;4.10;;;26.80;99.90;;;;;;5067982;28;20041;-66
2023/08/03 08:11:36;;;;;;;10.88;4.75;;;26.70;99.90;;;;;;5061074;28;20047;-66
2023/08/03 08:14:40;;;;;;;10.57;4.40;;;27.40;99.90;;;;;;5060323;28;20051;-66
2023/08/03 08:17:44;;;;;;;10.38;3.92;;;27.70;99.90;;;;;;5063381;28;20631;-68
2023/08/03 08:20:55;;;;;;;9.25;3.60;;;27.70;99.90;;;;;;5064118;28;20048;-66
2023/08/03 08:23:59;;;;;;;13.40;3.85;;;27.60;99.90;;;;;;5068980;28;20048;-67
2023/08/03 08:27:03;;;;;;;10.13;4.45;;;27.50;99.90;;;;;;5066980;28;20055;-67
2023/08/03 08:30:08;;;;;;;9.05;3.70;;;27.70;99.90;;;;;;5068220;28;20039;-67
2023/08/03 08:33:19;;;;;;;12.05;3.97;;;28.20;99.90;;;;;;5070666;28;20475;-66
2023/08/03 08:36:24;;;;;;;10.38;4.22;;;28.40;99.90;;;;;;5067781;28;20039;-68
2023/08/03 08:39:29;;;;;;;13.63;4.00;;;28.50;99.90;;;;;;5064204;28;20044;-66
2023/08/03 08:42:34;;;;;;;7.43;3.53;;;28.50;99.90;;;;;;5058521;28;20494;-66
2023/08/03 08:45:39;;;;;;;10.77;3.88;;;28.10;99.90;;;;;;5057183;28;20047;-66
2023/08/03 08:48:44;;;;;;;14.23;4.00;;;27.80;99.90;;;;;;5056137;28;20040;-66
2023/08/03 08:51:51;;;;;;;9.20;3.75;;;27.80;99.90;;;;;;5074993;28;20035;-66
2023/08/03 08:55:18;;;;;;;8.70;3.85;;;27.80;99.90;;;;;;5076758;28;20035;-65
2023/08/03 08:58:24;;;;;;;11.35;4.47;;;27.70;99.90;;;;;;5057563;28;20035;-67
2023/08/03 09:01:47;;;;;;;7.10;3.58;;;27.80;99.90;;;;;;5057793;28;20044;-66
2023/08/03 09:04:52;;;;;;;9.30;3.92;;;28.00;99.90;;;;;;5078984;28;20039;-66
2023/08/03 09:08:07;;;;;;;8.55;3.60;;;28.10;99.90;;;;;;5060994;28;20047;-66
2023/08/03 09:11:11;;;;;;;10.52;4.18;;;28.20;99.90;;;;;;5061349;28;20036;-65
2023/08/03 09:14:16;;;;;;;10.35;4.00;;;28.30;99.90;;;;;;5062288;28;20489;-66
2023/08/03 09:17:25;;;;;;;9.07;3.92;;;28.40;99.90;;;;;;5070894;28;20036;-65
2023/08/03 09:20:31;;;;;;;8.15;3.33;;;28.70;99.90;;;;;;5075353;28;20042;-65
2023/08/03 09:23:38;;;;;;;8.93;3.75;;;29.20;99.90;;;;;;5063281;28;20051;-65
2023/08/03 09:26:42;;;;;;;7.05;3.30;;;31.30;99.90;;;;;;5063747;28;20068;-65
2023/08/03 09:29:47;;;;;;;6.95;3.45;;;31.90;99.90;;;;;;5060856;28;20043;-64
2023/08/03 09:32:51;;;;;;;9.43;3.67;;;31.50;99.90;;;;;;5063958;28;20051;-64
2023/08/03 09:36:14;;;;;;;10.43;3.58;;;31.40;99.90;;;;;;5067256;28;20052;-65
2023/08/03 09:39:18;;;;;;;13.02;4.35;;;31.10;99.90;;;;;;5066937;28;20059;-65
2023/08/03 09:42:24;;;;;;;9.93;3.35;;;30.70;99.90;;;;;;5062625;28;20032;-64
2023/08/03 09:45:29;;;;;;;10.48;4.20;;;30.60;99.90;;;;;;5066462;28;20039;-65
2023/08/03 09:48:35;;;;;;;7.47;3.60;;;30.40;99.90;;;;;;5058323;28;20317;-67
2023/08/03 09:51:44;;;;;;;15.15;4.35;;;30.80;99.90;;;;;;5066592;28;20048;-65
2023/08/03 09:55:08;;;;;;;11.98;5.18;;;30.60;99.90;;;;;;5053964;28;20050;-65
2023/08/03 09:58:16;;;;;;;11.88;4.38;;;30.50;99.90;;;;;;5055054;28;20498;-65
2023/08/03 10:01:23;;;;;;;12.25;4.07;;;30.30;99.90;;;;;;5058607;28;20664;-64
2023/08/03 10:04:38;;;;;;;7.82;4.00;;;30.20;99.90;;;;;;5071368;28;20387;-64
2023/08/03 10:08:04;;;;;;;10.38;4.45;;;30.30;99.90;;;;;;5057777;28;20048;-64
2023/08/03 10:11:12;;;;;;;10.73;4.28;;;30.50;99.90;;;;;;5071994;28;20067;-65
2023/08/03 10:14:22;;;;;;;10.88;4.22;;;30.20;99.90;;;;;;5070711;28;20055;-65
2023/08/03 10:17:28;;;;;;;14.27;4.55;;;30.80;99.90;;;;;;5061773;28;20047;-64
2023/08/03 10:20:35;;;;;;;12.30;3.90;;;31.00;99.90;;;;;;5072773;28;20051;-64
2023/08/03 10:23:39;;;;;;;13.13;4.40;;;31.10;99.90;;;;;;5067632;28;20039;-65
2023/08/03 10:26:51;;;;;;;11.13;4.00;;;31.10;99.90;;;;;;5070677;28;20044;-66
2023/08/03 10:29:56;;;;;;;;;;;30.90;99.90;;;;;;5065939;28;20048;-66
2023/08/03 10:33:00;;;;;;;10.98;4.78;;;30.90;99.90;;;;;;5068844;28;19908;-68
2023/08/03 10:36:06;;;;;;;9.00;3.75;;;31.60;99.90;;;;;;5052765;28;20450;-67
2023/08/03 10:39:14;;;;;;;14.75;4.22;;;32.20;99.90;;;;;;5061847;28;20059;-67
2023/08/03 10:42:32;;;;;;;6.90;3.67;;;32.30;99.90;;;;;;5065456;28;20593;-67
2023/08/03 10:45:37;;;;;;;6.85;3.70;;;32.00;99.90;;;;;;5058863;28;20132;-67
2023/08/03 10:48:42;;;;;;;9.85;4.25;;;31.80;99.90;;;;;;5067369;28;20075;-67
2023/08/03 10:51:46;;;;;;;10.07;4.30;;;31.50;99.90;;;;;;5062051;28;20048;-68
2023/08/03 10:54:50;;;;;;;11.57;3.88;;;31.00;99.90;;;;;;5061307;28;20043;-68
2023/08/03 10:57:55;;;;;;;9.23;4.05;;;30.60;99.90;;;;;;5061318;28;20051;-67
2023/08/03 11:00:59;;;;;;;7.07;3.67;;;30.70;99.90;;;;;;5069960;28;20044;-67
2023/08/03 11:04:03;;;;;;;7.78;3.42;;;30.90;99.90;;;;;;5054073;28;20090;-67
2023/08/03 11:07:10;;;;;;;12.93;4.15;;;30.80;99.90;;;;;;5063145;28;20386;-67
2023/08/03 11:10:15;;;;;;;8.85;3.95;;;30.70;99.90;;;;;;5060862;28;20534;-67
2023/08/03 11:13:21;;;;;;;13.73;4.60;;;30.40;99.90;;;;;;5052859;28;20048;-67
2023/08/03 11:16:26;;;;;;;11.50;4.85;;;30.20;99.90;;;;;;5072459;28;20553;-67
2023/08/03 11:19:33;;;;;;;13.40;4.53;;;29.70;99.90;;;;;;5066511;28;20044;-67
2023/08/03 11:22:37;;;;;;;13.93;4.97;;;29.50;99.90;;;;;;5062922;28;20052;-67
2023/08/03 11:25:42;;;;;;;12.60;4.53;;;29.40;99.90;;;;;;5070489;28;20039;-67
2023/08/03 11:28:48;;;;;;;14.77;5.18;;;29.60;99.90;;;;;;5063336;28;20056;-68
2023/08/03 11:31:53;;;;;;;11.23;4.55;;;29.30;99.90;;;;;;5069679;28;20380;-67
2023/08/03 11:35:04;;;;;;;9.40;3.95;;;29.40;99.90;;;;;;5066416;28;20043;-68
2023/08/03 11:38:10;;;;;;;10.02;3.85;;;31.20;99.90;;;;;;5062531;28;20043;-68
2023/08/03 11:41:17;;;;;;;10.48;4.78;;;32.40;99.90;;;;;;5063948;28;20044;-68
2023/08/03 11:44:23;;;;;;;9.52;4.50;;;31.30;99.90;;;;;;5060602;28;20027;-68
2023/08/03 11:47:41;;;;;;;12.63;4.38;;;30.60;99.90;;;;;;5062639;28;20044;-68
2023/08/03 11:50:46;;;;;;;9.27;4.45;;;30.30;99.90;;;;;;5068490;28;20063;-67
2023/08/03 11:53:50;;;;;;;14.15;4.63;;;29.70;99.90;;;;;;5066933;28;20048;-67
2023/08/03 11:58:07;;;;;;;11.25;5.03;;;29.70;99.90;;;;;;5062935;28;20044;-67
2023/08/03 12:00:21;;;;;;;12.73;4.88;;;29.70;99.90;;;;;;5059354;28;20039;-67
2023/08/03 12:03:44;;;;;;;10.93;4.50;;;29.70;99.90;;;;;;5064185;28;20297;-68
2023/08/03 12:06:52;;;;;;;14.43;5.43;;;30.00;99.90;;;;;;5053670;28;20039;-67
2023/08/03 12:09:56;;;;;;;10.90;4.38;;;30.20;99.90;;;;;;5063415;28;20528;-67
2023/08/03 12:13:01;;;;;;;8.90;4.57;;;30.80;99.90;;;;;;5057472;28;20044;-68
2023/08/03 12:16:05;;;;;;;7.80;4.15;;;31.50;99.90;;;;;;5057521;28;20052;-68
2023/08/03 12:19:09;;;;;;;9.80;4.25;;;32.00;99.90;;;;;;5058534;28;20048;-68
2023/08/03 12:22:15;;;;;;;7.88;3.55;;;32.70;99.90;;;;;;5062361;28;20051;-68
2023/08/03 12:25:20;;;;;;;17.38;3.70;;;34.00;99.90;;;;;;5069569;28;20363;-68
2023/08/03 12:28:25;;;;;;;9.88;3.90;;;36.40;99.40;;;;;;5070412;28;20490;-67
2023/08/03 12:31:31;;;;;;;9.98;4.00;;;36.40;97.50;;;;;;5059898;28;20525;-68
2023/08/03 12:34:35;;;;;;;8.23;3.75;;;36.20;98.00;;;;;;5062329;28;20040;-68
2023/08/03 12:37:40;;;;;;;8.18;3.25;;;36.90;97.10;;;;;;5060592;28;20060;-68
2023/08/03 12:40:44;;;;;;;8.98;3.45;;;38.70;95.80;;;;;;5064212;28;20040;-68
2023/08/03 12:43:49;;;;;;;8.98;3.10;;;39.90;94.70;;;;;;5067882;28;20044;-69
2023/08/03 12:46:53;;;;;;;5.97;3.17;;;39.60;93.80;;;;;;5055307;28;20040;-68
2023/08/03 12:49:58;;;;;;;8.68;3.70;;;39.80;93.10;;;;;;5055144;28;20395;-68
2023/08/03 12:53:04;;;;;;;9.40;3.38;;;36.20;94.40;;;;;;5063803;28;20044;-69
2023/08/03 12:56:08;;;;;;;17.90;3.85;;;36.90;95.30;;;;;;5073528;28;20055;-69
2023/08/03 12:59:13;;;;;;;7.30;3.40;;;37.40;95.10;;;;;;5060658;28;20122;-68
2023/08/03 13:02:18;;;;;;;9.52;3.63;;;37.10;94.50;;;;;;5053413;28;20140;-68
2023/08/03 13:05:22;;;;;;;9.45;3.70;;;35.80;95.10;;;;;;5053623;28;20044;-67
2023/08/03 13:08:26;;;;;;;9.20;3.65;;;33.60;97.50;;;;;;5050701;28;20048;-68
2023/08/03 13:11:30;;;;;;;7.03;3.15;;;33.30;98.00;;;;;;5064082;28;20048;-68
2023/08/03 13:14:34;;;;;;;8.15;4.15;;;33.70;98.10;;;;;;5053604;28;20052;-68
2023/08/03 13:17:38;;;;;;;8.60;3.72;;;34.30;97.80;;;;;;5061390;28;20056;-68
2023/08/03 13:20:42;;;;;;;6.63;3.25;;;34.70;97.80;;;;;;5079174;28;20044;-69
2023/08/03 13:23:47;;;;;;;11.88;3.97;;;35.10;97.50;;;;;;5054326;28;20040;-69
2023/08/03 13:26:53;;;;;;;8.88;3.78;;;35.20;97.30;;;;;;5065733;28;20494;-68
2023/08/03 13:29:57;;;;;;;8.60;3.78;;;35.40;97.00;;;;;;5053464;28;20048;-68
2023/08/03 13:33:01;;;;;;;8.50;3.83;;;35.60;97.00;;;;;;5062742;28;20052;-68
2023/08/03 13:36:06;;;;;;;6.60;3.35;;;35.50;96.90;;;;;;5067290;28;20411;-68
2023/08/03 13:39:11;;;;;;;11.55;4.20;;;35.60;96.80;;;;;;5067873;28;20391;-68
2023/08/03 13:42:15;;;;;;;6.13;3.47;;;35.30;96.60;;;;;;5068234;28;20043;-68
2023/08/03 13:45:20;;;;;;;8.77;4.00;;;34.80;97.50;;;;;;5058858;28;20036;-67
2023/08/03 13:48:24;;;;;;;9.52;3.33;;;34.60;97.80;;;;;;5042443;28;20059;-68
2023/08/03 13:51:28;;;;;;;9.20;4.20;;;34.30;98.30;;;;;;5063702;28;20040;-68
2023/08/03 13:54:32;;;;;;;8.27;3.50;;;34.10;98.50;;;;;;5069915;28;20040;-68
2023/08/03 13:57:37;;;;;;;9.98;4.15;;;34.20;98.40;;;;;;5071662;28;20055;-68
2023/08/03 14:00:42;;;;;;;9.15;3.50;;;34.70;98.20;;;;;;5069717;28;20040;-67
2023/08/03 14:03:47;;;;;;;9.65;3.30;;;35.00;97.60;;;;;;5052306;28;20048;-68
2023/08/03 14:06:51;;;;;;;6.90;3.58;;;35.50;97.10;;;;;;5052339;28;20044;-68
2023/08/03 14:09:54;;;;;;;26.00;4.68;;;35.90;96.30;;;;;;5043635;28;20040;-68
2023/08/03 14:13:00;;;;;;;8.05;3.42;;;35.30;96.60;;;;;;5061824;28;20043;-68
2023/08/03 14:16:09;;;;;;;10.75;3.53;;;35.40;96.90;;;;;;5057855;28;20048;-68
2023/08/03 14:19:14;;;;;;;10.55;3.92;;;35.70;97.00;;;;;;5058737;28;20056;-68
2023/08/03 14:22:19;;;;;;;9.02;4.03;;;36.10;96.40;;;;;;5056411;28;20048;-68
2023/08/03 14:25:23;;;;;;;20.60;4.18;;;36.20;95.90;;;;;;5069630;28;20043;-68
2023/08/03 14:28:27;;;;;;;8.90;3.90;;;35.20;96.60;;;;;;5071307;28;20059;-68
2023/08/03 14:31:32;;;;;;;7.78;3.67;;;34.60;96.60;;;;;;5071059;28;20047;-68
2023/08/03 14:34:36;;;;;;;7.78;3.45;;;34.30;97.20;;;;;;5071939;28;20051;-68
2023/08/03 14:37:40;;;;;;;10.63;3.95;;;34.40;97.20;;;;;;5071386;28;20044;-68
2023/08/03 14:40:45;;;;;;;8.13;3.85;;;34.50;97.50;;;;;;5072511;28;20031;-68
2023/08/03 14:43:50;;;;;;;6.55;3.33;;;34.50;97.80;;;;;;5072083;28;20052;-68
2023/08/03 14:46:54;;;;;;;7.05;3.67;;;34.60;97.70;;;;;;5071383;28;20047;-68
2023/08/03 14:50:00;;;;;;;9.95;3.72;;;34.30;97.80;;;;;;5071465;28;20047;-68
2023/08/03 14:53:04;;;;;;;12.30;4.55;;;34.10;98.10;;;;;;5071304;28;20528;-68
2023/08/03 14:56:08;;;;;;;12.13;4.63;;;33.90;98.60;;;;;;5071411;28;20039;-68
2023/08/03 14:59:12;;;;;;;8.20;3.28;;;33.50;98.90;;;;;;5071902;28;20071;-68
2023/08/03 15:02:19;;;;;;;8.13;4.32;;;33.50;99.20;;;;;;5070937;28;20039;-68
2023/08/03 15:05:23;;;;;;;24.63;4.13;;;33.70;98.80;;;;;;5071243;28;20044;-68
2023/08/03 15:08:27;;;;;;;9.38;3.90;;;33.70;98.90;;;;;;5071157;28;20043;-68
2023/08/03 15:11:33;;;;;;;13.13;4.38;;;34.00;98.80;;;;;;5058124;28;20047;-69
2023/08/03 15:14:37;;;;;;;14.43;4.38;;;34.00;98.20;;;;;;5070935;28;20387;-68
2023/08/03 15:17:42;;;;;;;9.40;4.20;;;33.80;98.10;;;;;;5070704;28;20448;-68
2023/08/03 15:20:47;;;;;;;11.23;3.80;;;33.60;98.00;;;;;;5070787;28;20051;-68
2023/08/03 15:23:52;;;;;;;8.15;3.80;;;33.20;99.10;;;;;;5070961;28;20498;-68
2023/08/03 15:26:57;;;;;;;9.70;3.92;;;33.80;98.60;;;;;;5071238;28;20052;-69
2023/08/03 15:30:05;;;;;;;11.43;4.45;;;34.00;98.80;;;;;;5071614;28;20052;-68
2023/08/03 15:33:10;;;;;;;8.25;4.18;;;33.90;98.60;;;;;;5070293;28;20044;-68
2023/08/03 15:36:13;;;;;;;10.82;3.58;;;33.60;98.80;;;;;;5070574;28;20040;-68
2023/08/03 15:39:19;;;;;;;9.60;4.22;;;33.40;99.10;;;;;;5070493;28;20491;-68
2023/08/03 15:42:24;;;;;;;10.30;4.30;;;33.10;99.30;;;;;;5069768;28;20036;-68
2023/08/03 15:45:29;;;;;;;6.15;3.78;;;33.00;99.40;;;;;;5070546;28;20490;-68
2023/08/03 15:48:34;;;;;;;12.23;3.72;;;33.00;99.70;;;;;;5070152;28;20040;-68
2023/08/03 15:51:37;;;;;;;7.25;3.80;;;32.90;99.00;;;;;;5070072;28;20053;-69
2023/08/03 15:54:41;;;;;;;13.35;3.85;;;33.00;99.50;;;;;;5070435;28;20048;-68
2023/08/03 15:57:45;;;;;;;12.13;3.83;;;32.90;99.90;;;;;;5070260;28;20498;-68